This is the latest recevied weather packets stored in our database for station/object DL8BNG-13. If no packets are shown the sender has not sent any weather packets the latest 10 day(s).
| Time | Temp. | Humidity | Pressure | Rain* | Wind** | Luminosity | Snow |
|---|---|---|---|---|---|---|---|
| 1788418803 | 14.44° C | 65% | - | 0 mm | - | - | - |
| 1788417002 | 13.33° C | 69% | - | 0 mm | - | - | - |
| 1788416102 | 12.78° C | 73% | - | 0 mm | - | - | - |
| 1788415202 | 12.78° C | 78% | - | 0 mm | - | - | - |
| 1788413403 | 12.22° C | 84% | - | 0 mm | - | - | - |
| 1788412502 | 11.67° C | 87% | - | 0 mm | - | - | - |
| 1788411602 | 10.56° C | 87% | - | 0 mm | - | - | - |
| 1788410703 | 10.56° C | 87% | - | 0 mm | - | - | - |
| 1788409802 | 10.56° C | 87% | - | 0 mm | - | - | - |
| 1788408902 | 10.56° C | 87% | - | 0 mm | - | - | - |
| 1788408002 | 11.11° C | 86% | - | 0 mm | - | - | - |
| 1788407104 | 11.11° C | 86% | - | 0 mm | - | - | - |
| 1788406203 | 11.11° C | 85% | - | 0 mm | - | - | - |
| 1788405302 | 11.11° C | 85% | - | 0 mm | - | - | - |
| 1788404402 | 11.67° C | 84% | - | 0 mm | - | - | - |
| 1788403502 | 11.67° C | 84% | - | 0 mm | - | - | - |
| 1788402603 | 11.67° C | 84% | - | 0 mm | - | - | - |
| 1788401702 | 11.67° C | 84% | - | 0 mm | - | - | - |
| 1788377405 | 19.44° C | 53% | - | 0 mm | - | - | - |
| 1788376502 | 19.44° C | 54% | - | 0 mm | - | - | - |
| 1788375603 | 20° C | 53% | - | 0 mm | - | - | - |
| 1788373803 | 21.11° C | 50% | - | 0 mm | - | - | - |
| 1788370202 | 22.22° C | 44% | - | 0 mm | - | - | - |
| 1788362102 | 23.33° C | 40% | - | 0 mm | - | - | - |
| 1788358502 | 23.33° C | 39% | - | 0 mm | - | - | - |
* Rain since midnight (hover to see other rain measurements)
** Current wind speed in m/s (hover to see current wind gust speed)